sensor_id;sensor_type;location;lat;lon;timestamp;temperature;humidity
4081;DHT22;2055;50.074;8.436;2022-10-16T00:01:24;14.80;99.90
4081;DHT22;2055;50.074;8.436;2022-10-16T00:03:51;14.80;99.90
4081;DHT22;2055;50.074;8.436;2022-10-16T00:06:18;15.90;99.90
4081;DHT22;2055;50.074;8.436;2022-10-16T00:08:44;14.80;99.90
4081;DHT22;2055;50.074;8.436;2022-10-16T00:11:21;15.40;99.90
4081;DHT22;2055;50.074;8.436;2022-10-16T00:13:49;14.80;99.90
4081;DHT22;2055;50.074;8.436;2022-10-16T00:16:15;14.80;99.90
4081;DHT22;2055;50.074;8.436;2022-10-16T00:18:41;14.50;99.90
4081;DHT22;2055;50.074;8.436;2022-10-16T00:21:09;15.00;99.90
4081;DHT22;2055;50.074;8.436;2022-10-16T00:23:36;14.90;99.90
4081;DHT22;2055;50.074;8.436;2022-10-16T00:26:07;14.90;99.90
4081;DHT22;2055;50.074;8.436;2022-10-16T00:28:33;14.90;99.90
4081;DHT22;2055;50.074;8.436;2022-10-16T00:31:05;14.90;99.90
4081;DHT22;2055;50.074;8.436;2022-10-16T00:33:32;16.10;99.90
4081;DHT22;2055;50.074;8.436;2022-10-16T00:35:59;15.00;99.90
4081;DHT22;2055;50.074;8.436;2022-10-16T00:38:24;15.00;99.90
4081;DHT22;2055;50.074;8.436;2022-10-16T00:40:50;15.00;99.90
4081;DHT22;2055;50.074;8.436;2022-10-16T00:43:39;15.00;99.90
4081;DHT22;2055;50.074;8.436;2022-10-16T00:48:47;15.00;99.90
4081;DHT22;2055;50.074;8.436;2022-10-16T00:51:14;15.10;99.90
4081;DHT22;2055;50.074;8.436;2022-10-16T00:53:39;15.10;99.90
4081;DHT22;2055;50.074;8.436;2022-10-16T00:56:05;15.10;99.90
4081;DHT22;2055;50.074;8.436;2022-10-16T00:58:31;15.10;99.90
4081;DHT22;2055;50.074;8.436;2022-10-16T01:00:57;15.20;99.90
4081;DHT22;2055;50.074;8.436;2022-10-16T01:03:36;16.00;99.90
4081;DHT22;2055;50.074;8.436;2022-10-16T01:08:58;15.20;99.90
4081;DHT22;2055;50.074;8.436;2022-10-16T01:14:51;15.20;99.90
4081;DHT22;2055;50.074;8.436;2022-10-16T01:17:26;15.10;99.90
4081;DHT22;2055;50.074;8.436;2022-10-16T01:20:20;15.10;99.90
4081;DHT22;2055;50.074;8.436;2022-10-16T01:31:15;15.10;99.90
4081;DHT22;2055;50.074;8.436;2022-10-16T01:33:45;15.00;99.90
4081;DHT22;2055;50.074;8.436;2022-10-16T01:36:18;14.30;99.90
4081;DHT22;2055;50.074;8.436;2022-10-16T01:38:49;14.90;99.90
4081;DHT22;2055;50.074;8.436;2022-10-16T01:41:23;14.90;99.90
4081;DHT22;2055;50.074;8.436;2022-10-16T01:44:02;14.90;99.90
4081;DHT22;2055;50.074;8.436;2022-10-16T01:46:30;14.90;99.90
4081;DHT22;2055;50.074;8.436;2022-10-16T01:48:57;15.20;99.90
4081;DHT22;2055;50.074;8.436;2022-10-16T01:51:25;14.80;99.90
4081;DHT22;2055;50.074;8.436;2022-10-16T01:53:53;14.90;99.90
4081;DHT22;2055;50.074;8.436;2022-10-16T01:56:21;15.00;99.90
4081;DHT22;2055;50.074;8.436;2022-10-16T01:59:07;14.90;99.90
4081;DHT22;2055;50.074;8.436;2022-10-16T02:01:38;14.90;99.90
4081;DHT22;2055;50.074;8.436;2022-10-16T02:04:16;14.90;99.90
4081;DHT22;2055;50.074;8.436;2022-10-16T02:06:42;14.90;99.90
4081;DHT22;2055;50.074;8.436;2022-10-16T02:09:08;14.90;99.90
4081;DHT22;2055;50.074;8.436;2022-10-16T02:11:34;14.90;99.90
4081;DHT22;2055;50.074;8.436;2022-10-16T02:14:05;14.90;99.90
4081;DHT22;2055;50.074;8.436;2022-10-16T02:16:38;14.90;99.90
4081;DHT22;2055;50.074;8.436;2022-10-16T02:19:06;14.90;99.90
4081;DHT22;2055;50.074;8.436;2022-10-16T02:21:47;14.90;99.90
4081;DHT22;2055;50.074;8.436;2022-10-16T02:24:33;14.80;99.90
4081;DHT22;2055;50.074;8.436;2022-10-16T02:30:07;14.90;99.90
4081;DHT22;2055;50.074;8.436;2022-10-16T02:32:37;14.90;99.90
4081;DHT22;2055;50.074;8.436;2022-10-16T02:35:04;14.90;99.90
4081;DHT22;2055;50.074;8.436;2022-10-16T02:37:31;14.90;99.90
4081;DHT22;2055;50.074;8.436;2022-10-16T02:39:58;14.90;99.90
4081;DHT22;2055;50.074;8.436;2022-10-16T02:42:37;14.80;99.90
4081;DHT22;2055;50.074;8.436;2022-10-16T02:45:05;14.80;99.90
4081;DHT22;2055;50.074;8.436;2022-10-16T02:47:31;14.80;99.90
4081;DHT22;2055;50.074;8.436;2022-10-16T02:49:56;14.80;99.90
4081;DHT22;2055;50.074;8.436;2022-10-16T02:52:22;14.80;99.90
4081;DHT22;2055;50.074;8.436;2022-10-16T02:54:47;14.80;99.90
4081;DHT22;2055;50.074;8.436;2022-10-16T02:57:13;14.80;99.90
4081;DHT22;2055;50.074;8.436;2022-10-16T02:59:38;14.80;99.90
4081;DHT22;2055;50.074;8.436;2022-10-16T03:02:04;14.80;99.90
4081;DHT22;2055;50.074;8.436;2022-10-16T03:04:29;14.80;99.90
4081;DHT22;2055;50.074;8.436;2022-10-16T03:06:55;15.30;99.90
4081;DHT22;2055;50.074;8.436;2022-10-16T03:09:20;14.80;99.90
4081;DHT22;2055;50.074;8.436;2022-10-16T03:11:46;14.70;99.90
4081;DHT22;2055;50.074;8.436;2022-10-16T03:14:12;14.80;99.90
4081;DHT22;2055;50.074;8.436;2022-10-16T03:16:37;14.80;99.90
4081;DHT22;2055;50.074;8.436;2022-10-16T03:19:03;14.70;99.90
4081;DHT22;2055;50.074;8.436;2022-10-16T03:21:28;14.80;99.90
4081;DHT22;2055;50.074;8.436;2022-10-16T03:23:54;14.80;99.90
4081;DHT22;2055;50.074;8.436;2022-10-16T03:26:19;14.70;99.90
4081;DHT22;2055;50.074;8.436;2022-10-16T03:28:45;14.70;99.90
4081;DHT22;2055;50.074;8.436;2022-10-16T03:31:10;14.70;99.90
4081;DHT22;2055;50.074;8.436;2022-10-16T03:33:36;14.70;99.90
4081;DHT22;2055;50.074;8.436;2022-10-16T03:36:01;14.70;99.90
4081;DHT22;2055;50.074;8.436;2022-10-16T03:38:27;14.70;99.90
4081;DHT22;2055;50.074;8.436;2022-10-16T03:40:52;14.70;99.90
4081;DHT22;2055;50.074;8.436;2022-10-16T03:43:18;14.70;99.90
4081;DHT22;2055;50.074;8.436;2022-10-16T03:45:44;14.60;99.90
4081;DHT22;2055;50.074;8.436;2022-10-16T03:48:09;14.70;99.90
4081;DHT22;2055;50.074;8.436;2022-10-16T03:50:35;14.70;99.90
4081;DHT22;2055;50.074;8.436;2022-10-16T03:53:01;14.70;99.90
4081;DHT22;2055;50.074;8.436;2022-10-16T03:55:26;14.70;99.90
4081;DHT22;2055;50.074;8.436;2022-10-16T03:57:52;14.70;99.90
4081;DHT22;2055;50.074;8.436;2022-10-16T04:00:17;14.70;99.90
4081;DHT22;2055;50.074;8.436;2022-10-16T04:02:43;14.70;99.90
4081;DHT22;2055;50.074;8.436;2022-10-16T04:05:09;14.60;99.90
4081;DHT22;2055;50.074;8.436;2022-10-16T04:07:34;14.70;99.90
4081;DHT22;2055;50.074;8.436;2022-10-16T04:10:00;14.90;99.90
4081;DHT22;2055;50.074;8.436;2022-10-16T04:12:26;14.70;99.90
4081;DHT22;2055;50.074;8.436;2022-10-16T04:14:52;14.70;99.90
4081;DHT22;2055;50.074;8.436;2022-10-16T04:17:17;14.70;99.90
4081;DHT22;2055;50.074;8.436;2022-10-16T04:19:43;14.70;99.90
4081;DHT22;2055;50.074;8.436;2022-10-16T04:22:08;14.60;99.90
4081;DHT22;2055;50.074;8.436;2022-10-16T04:24:34;14.60;99.90
4081;DHT22;2055;50.074;8.436;2022-10-16T04:26:59;14.60;99.90
4081;DHT22;2055;50.074;8.436;2022-10-16T04:29:25;14.70;99.90
4081;DHT22;2055;50.074;8.436;2022-10-16T04:31:51;14.60;99.90
4081;DHT22;2055;50.074;8.436;2022-10-16T04:34:16;14.70;99.90
4081;DHT22;2055;50.074;8.436;2022-10-16T04:36:42;14.70;99.90
4081;DHT22;2055;50.074;8.436;2022-10-16T04:39:07;14.70;99.90
4081;DHT22;2055;50.074;8.436;2022-10-16T04:41:33;14.70;99.90
4081;DHT22;2055;50.074;8.436;2022-10-16T04:43:58;14.70;99.90
4081;DHT22;2055;50.074;8.436;2022-10-16T04:46:24;14.70;99.90
4081;DHT22;2055;50.074;8.436;2022-10-16T04:48:49;15.00;99.90
4081;DHT22;2055;50.074;8.436;2022-10-16T04:51:15;14.70;99.90
4081;DHT22;2055;50.074;8.436;2022-10-16T04:53:41;14.70;99.90
4081;DHT22;2055;50.074;8.436;2022-10-16T04:56:06;15.10;99.90
4081;DHT22;2055;50.074;8.436;2022-10-16T04:58:32;14.70;99.90
4081;DHT22;2055;50.074;8.436;2022-10-16T05:00:58;14.70;99.90
4081;DHT22;2055;50.074;8.436;2022-10-16T05:03:24;14.60;99.90
4081;DHT22;2055;50.074;8.436;2022-10-16T05:05:49;14.70;99.90
4081;DHT22;2055;50.074;8.436;2022-10-16T05:08:16;15.60;99.90
4081;DHT22;2055;50.074;8.436;2022-10-16T05:10:42;14.60;99.90
4081;DHT22;2055;50.074;8.436;2022-10-16T05:13:08;14.60;99.90
4081;DHT22;2055;50.074;8.436;2022-10-16T05:15:34;15.00;99.90
4081;DHT22;2055;50.074;8.436;2022-10-16T05:17:59;14.60;99.90
4081;DHT22;2055;50.074;8.436;2022-10-16T05:20:25;14.60;99.90
4081;DHT22;2055;50.074;8.436;2022-10-16T05:22:50;14.60;99.90
4081;DHT22;2055;50.074;8.436;2022-10-16T05:25:16;14.90;99.90
4081;DHT22;2055;50.074;8.436;2022-10-16T05:27:42;14.90;99.90
4081;DHT22;2055;50.074;8.436;2022-10-16T05:30:08;14.50;99.90
4081;DHT22;2055;50.074;8.436;2022-10-16T05:32:33;14.50;99.90
4081;DHT22;2055;50.074;8.436;2022-10-16T05:34:59;14.70;99.90
4081;DHT22;2055;50.074;8.436;2022-10-16T05:37:27;14.50;99.90
4081;DHT22;2055;50.074;8.436;2022-10-16T05:39:52;14.50;99.90
4081;DHT22;2055;50.074;8.436;2022-10-16T05:42:18;14.50;99.90
4081;DHT22;2055;50.074;8.436;2022-10-16T05:44:44;14.50;99.90
4081;DHT22;2055;50.074;8.436;2022-10-16T05:47:09;14.50;99.90
4081;DHT22;2055;50.074;8.436;2022-10-16T05:49:36;14.60;99.90
4081;DHT22;2055;50.074;8.436;2022-10-16T05:52:01;14.50;99.90
4081;DHT22;2055;50.074;8.436;2022-10-16T05:54:27;14.50;99.90
4081;DHT22;2055;50.074;8.436;2022-10-16T05:56:52;14.50;99.90
4081;DHT22;2055;50.074;8.436;2022-10-16T05:59:18;14.70;99.90
4081;DHT22;2055;50.074;8.436;2022-10-16T06:01:43;14.50;99.90
4081;DHT22;2055;50.074;8.436;2022-10-16T06:04:09;14.60;99.90
4081;DHT22;2055;50.074;8.436;2022-10-16T06:06:35;14.60;99.90
4081;DHT22;2055;50.074;8.436;2022-10-16T06:09:02;14.60;99.90
4081;DHT22;2055;50.074;8.436;2022-10-16T06:11:30;14.60;99.90
4081;DHT22;2055;50.074;8.436;2022-10-16T06:13:58;14.60;99.90
4081;DHT22;2055;50.074;8.436;2022-10-16T06:16:25;14.60;99.90
4081;DHT22;2055;50.074;8.436;2022-10-16T06:18:52;14.70;99.90
4081;DHT22;2055;50.074;8.436;2022-10-16T06:21:20;14.60;99.90
4081;DHT22;2055;50.074;8.436;2022-10-16T06:23:46;14.70;99.90
4081;DHT22;2055;50.074;8.436;2022-10-16T06:26:18;14.70;99.90
4081;DHT22;2055;50.074;8.436;2022-10-16T06:28:43;14.70;99.90
4081;DHT22;2055;50.074;8.436;2022-10-16T06:31:10;14.70;99.90
4081;DHT22;2055;50.074;8.436;2022-10-16T06:33:37;14.70;99.90
4081;DHT22;2055;50.074;8.436;2022-10-16T06:36:03;14.70;99.90
4081;DHT22;2055;50.074;8.436;2022-10-16T06:38:29;14.70;99.90
4081;DHT22;2055;50.074;8.436;2022-10-16T06:40:55;14.80;99.90
4081;DHT22;2055;50.074;8.436;2022-10-16T06:43:21;14.80;99.90
4081;DHT22;2055;50.074;8.436;2022-10-16T06:45:54;14.80;99.90
4081;DHT22;2055;50.074;8.436;2022-10-16T06:48:20;14.80;99.90
4081;DHT22;2055;50.074;8.436;2022-10-16T06:51:05;14.80;99.90
4081;DHT22;2055;50.074;8.436;2022-10-16T06:53:33;14.90;99.90
4081;DHT22;2055;50.074;8.436;2022-10-16T06:56:13;14.90;99.90
4081;DHT22;2055;50.074;8.436;2022-10-16T06:58:40;14.80;99.90
4081;DHT22;2055;50.074;8.436;2022-10-16T07:01:06;14.90;99.90
4081;DHT22;2055;50.074;8.436;2022-10-16T07:03:32;14.80;99.90
4081;DHT22;2055;50.074;8.436;2022-10-16T07:06:02;14.80;99.90
4081;DHT22;2055;50.074;8.436;2022-10-16T07:08:31;15.10;99.90
4081;DHT22;2055;50.074;8.436;2022-10-16T07:11:05;14.90;99.90
4081;DHT22;2055;50.074;8.436;2022-10-16T07:13:33;14.90;99.90
4081;DHT22;2055;50.074;8.436;2022-10-16T07:16:05;15.00;99.90
4081;DHT22;2055;50.074;8.436;2022-10-16T07:18:31;15.00;99.90
4081;DHT22;2055;50.074;8.436;2022-10-16T07:21:04;15.10;99.90
4081;DHT22;2055;50.074;8.436;2022-10-16T07:23:29;15.10;99.90
4081;DHT22;2055;50.074;8.436;2022-10-16T07:25:55;15.10;99.90
4081;DHT22;2055;50.074;8.436;2022-10-16T07:28:20;15.30;99.90
4081;DHT22;2055;50.074;8.436;2022-10-16T07:30:46;15.20;99.90
4081;DHT22;2055;50.074;8.436;2022-10-16T07:33:11;15.20;99.90
4081;DHT22;2055;50.074;8.436;2022-10-16T07:35:37;15.20;99.90
4081;DHT22;2055;50.074;8.436;2022-10-16T07:38:03;15.20;99.90
4081;DHT22;2055;50.074;8.436;2022-10-16T07:40:28;15.20;99.90
4081;DHT22;2055;50.074;8.436;2022-10-16T07:42:54;15.20;99.90
4081;DHT22;2055;50.074;8.436;2022-10-16T07:45:19;15.20;99.90
4081;DHT22;2055;50.074;8.436;2022-10-16T07:47:45;15.20;99.90
4081;DHT22;2055;50.074;8.436;2022-10-16T07:50:10;15.30;99.90
4081;DHT22;2055;50.074;8.436;2022-10-16T07:52:36;15.40;99.90
4081;DHT22;2055;50.074;8.436;2022-10-16T07:55:01;15.50;99.90
4081;DHT22;2055;50.074;8.436;2022-10-16T07:57:27;15.70;99.90
4081;DHT22;2055;50.074;8.436;2022-10-16T07:59:53;15.60;99.90
4081;DHT22;2055;50.074;8.436;2022-10-16T08:02:18;15.60;99.90
4081;DHT22;2055;50.074;8.436;2022-10-16T08:04:46;15.60;99.90
4081;DHT22;2055;50.074;8.436;2022-10-16T08:07:12;15.60;99.90
4081;DHT22;2055;50.074;8.436;2022-10-16T08:09:37;15.50;99.90
4081;DHT22;2055;50.074;8.436;2022-10-16T08:12:03;15.60;99.90
4081;DHT22;2055;50.074;8.436;2022-10-16T08:14:29;15.70;99.90
4081;DHT22;2055;50.074;8.436;2022-10-16T08:16:55;15.20;99.90
4081;DHT22;2055;50.074;8.436;2022-10-16T08:19:20;15.70;99.90
4081;DHT22;2055;50.074;8.436;2022-10-16T08:21:49;15.60;99.90
4081;DHT22;2055;50.074;8.436;2022-10-16T08:24:14;15.50;99.90
4081;DHT22;2055;50.074;8.436;2022-10-16T08:26:40;15.50;99.90
4081;DHT22;2055;50.074;8.436;2022-10-16T08:29:06;15.50;99.90
4081;DHT22;2055;50.074;8.436;2022-10-16T08:31:31;15.60;99.90
4081;DHT22;2055;50.074;8.436;2022-10-16T08:33:57;15.70;99.90
4081;DHT22;2055;50.074;8.436;2022-10-16T08:36:23;15.90;99.90
4081;DHT22;2055;50.074;8.436;2022-10-16T08:38:49;15.80;99.90
4081;DHT22;2055;50.074;8.436;2022-10-16T08:41:27;15.80;99.90
4081;DHT22;2055;50.074;8.436;2022-10-16T08:49:59;16.00;99.90
4081;DHT22;2055;50.074;8.436;2022-10-16T08:52:29;16.20;99.90
4081;DHT22;2055;50.074;8.436;2022-10-16T08:54:56;16.70;99.90
4081;DHT22;2055;50.074;8.436;2022-10-16T08:57:24;16.60;99.90
4081;DHT22;2055;50.074;8.436;2022-10-16T08:59:52;16.60;99.90
4081;DHT22;2055;50.074;8.436;2022-10-16T09:04:53;16.60;99.90
4081;DHT22;2055;50.074;8.436;2022-10-16T09:10:14;16.40;99.90
4081;DHT22;2055;50.074;8.436;2022-10-16T09:13:04;16.30;99.90
4081;DHT22;2055;50.074;8.436;2022-10-16T09:15:54;16.40;99.90
4081;DHT22;2055;50.074;8.436;2022-10-16T09:21:13;16.30;99.90
4081;DHT22;2055;50.074;8.436;2022-10-16T09:23:40;16.30;99.90
4081;DHT22;2055;50.074;8.436;2022-10-16T09:26:11;16.30;99.90
4081;DHT22;2055;50.074;8.436;2022-10-16T09:28:37;16.20;99.90
4081;DHT22;2055;50.074;8.436;2022-10-16T09:31:02;16.10;99.90
4081;DHT22;2055;50.074;8.436;2022-10-16T09:33:36;16.10;99.90
4081;DHT22;2055;50.074;8.436;2022-10-16T09:36:04;16.20;99.90
4081;DHT22;2055;50.074;8.436;2022-10-16T09:38:34;16.10;99.90
4081;DHT22;2055;50.074;8.436;2022-10-16T09:41:19;16.20;99.90
4081;DHT22;2055;50.074;8.436;2022-10-16T09:43:56;16.30;99.90
4081;DHT22;2055;50.074;8.436;2022-10-16T09:46:36;16.30;99.90
4081;DHT22;2055;50.074;8.436;2022-10-16T09:49:21;16.20;99.90
4081;DHT22;2055;50.074;8.436;2022-10-16T09:51:48;16.10;99.90
4081;DHT22;2055;50.074;8.436;2022-10-16T09:54:16;16.20;99.90
4081;DHT22;2055;50.074;8.436;2022-10-16T09:56:42;16.20;99.90
4081;DHT22;2055;50.074;8.436;2022-10-16T09:59:21;16.50;99.90
4081;DHT22;2055;50.074;8.436;2022-10-16T10:01:51;16.50;99.90
4081;DHT22;2055;50.074;8.436;2022-10-16T10:04:18;16.60;99.90
4081;DHT22;2055;50.074;8.436;2022-10-16T10:06:52;16.80;99.90
4081;DHT22;2055;50.074;8.436;2022-10-16T10:11:57;17.60;99.90
4081;DHT22;2055;50.074;8.436;2022-10-16T10:14:41;17.40;99.90
4081;DHT22;2055;50.074;8.436;2022-10-16T10:19:56;17.70;99.90
4081;DHT22;2055;50.074;8.436;2022-10-16T10:22:30;18.00;99.90
4081;DHT22;2055;50.074;8.436;2022-10-16T10:27:34;19.30;99.90
4081;DHT22;2055;50.074;8.436;2022-10-16T10:33:01;22.50;99.90
4081;DHT22;2055;50.074;8.436;2022-10-16T10:41:18;25.00;99.90
4081;DHT22;2055;50.074;8.436;2022-10-16T10:44:04;25.50;99.90
4081;DHT22;2055;50.074;8.436;2022-10-16T10:52:17;24.90;99.90
4081;DHT22;2055;50.074;8.436;2022-10-16T10:55:10;22.70;99.90
4081;DHT22;2055;50.074;8.436;2022-10-16T11:00:39;21.40;99.90
4081;DHT22;2055;50.074;8.436;2022-10-16T11:03:21;20.40;99.90
4081;DHT22;2055;50.074;8.436;2022-10-16T11:08:26;19.80;99.90
4081;DHT22;2055;50.074;8.436;2022-10-16T11:11:07;19.80;99.90
4081;DHT22;2055;50.074;8.436;2022-10-16T11:13:55;20.70;99.90
4081;DHT22;2055;50.074;8.436;2022-10-16T11:16:31;24.70;99.90
4081;DHT22;2055;50.074;8.436;2022-10-16T11:19:12;27.00;99.90
4081;DHT22;2055;50.074;8.436;2022-10-16T11:21:50;29.50;99.90
4081;DHT22;2055;50.074;8.436;2022-10-16T11:24:22;29.60;99.90
4081;DHT22;2055;50.074;8.436;2022-10-16T11:26:49;27.60;99.90
4081;DHT22;2055;50.074;8.436;2022-10-16T11:29:23;27.10;99.90
4081;DHT22;2055;50.074;8.436;2022-10-16T11:31:55;24.50;99.90
4081;DHT22;2055;50.074;8.436;2022-10-16T11:39:45;21.90;99.90
4081;DHT22;2055;50.074;8.436;2022-10-16T11:42:24;21.90;99.90
4081;DHT22;2055;50.074;8.436;2022-10-16T11:45:02;21.60;99.90
4081;DHT22;2055;50.074;8.436;2022-10-16T11:48:05;23.00;99.90
4081;DHT22;2055;50.074;8.436;2022-10-16T11:50:45;26.30;99.90
4081;DHT22;2055;50.074;8.436;2022-10-16T11:53:16;25.70;99.90
4081;DHT22;2055;50.074;8.436;2022-10-16T11:55:45;24.30;99.90
4081;DHT22;2055;50.074;8.436;2022-10-16T11:58:31;23.10;99.90
4081;DHT22;2055;50.074;8.436;2022-10-16T12:03:59;23.90;99.90
4081;DHT22;2055;50.074;8.436;2022-10-16T12:08:53;24.70;99.90
4081;DHT22;2055;50.074;8.436;2022-10-16T12:11:24;24.30;99.90
4081;DHT22;2055;50.074;8.436;2022-10-16T12:16:38;25.00;99.90
4081;DHT22;2055;50.074;8.436;2022-10-16T12:19:15;24.30;99.90
4081;DHT22;2055;50.074;8.436;2022-10-16T12:21:42;23.50;99.90
4081;DHT22;2055;50.074;8.436;2022-10-16T12:26:52;21.20;99.90
4081;DHT22;2055;50.074;8.436;2022-10-16T12:29:39;20.60;99.90
4081;DHT22;2055;50.074;8.436;2022-10-16T12:34:48;19.90;99.90
4081;DHT22;2055;50.074;8.436;2022-10-16T12:37:26;20.00;99.90
4081;DHT22;2055;50.074;8.436;2022-10-16T12:39:54;20.10;99.90
4081;DHT22;2055;50.074;8.436;2022-10-16T12:44:52;20.10;99.90
4081;DHT22;2055;50.074;8.436;2022-10-16T12:49:59;19.90;99.90
4081;DHT22;2055;50.074;8.436;2022-10-16T12:52:44;19.80;99.90
4081;DHT22;2055;50.074;8.436;2022-10-16T12:55:16;20.00;99.90
4081;DHT22;2055;50.074;8.436;2022-10-16T12:58:04;20.10;99.90
4081;DHT22;2055;50.074;8.436;2022-10-16T13:01:02;20.10;99.90
4081;DHT22;2055;50.074;8.436;2022-10-16T13:07:00;20.10;99.90
4081;DHT22;2055;50.074;8.436;2022-10-16T13:12:53;20.00;99.90
4081;DHT22;2055;50.074;8.436;2022-10-16T13:15:52;20.00;99.90
4081;DHT22;2055;50.074;8.436;2022-10-16T13:29:39;21.30;99.90
4081;DHT22;2055;50.074;8.436;2022-10-16T13:32:10;21.40;99.90
4081;DHT22;2055;50.074;8.436;2022-10-16T13:34:46;21.70;99.90
4081;DHT22;2055;50.074;8.436;2022-10-16T13:37:22;21.00;99.90
4081;DHT22;2055;50.074;8.436;2022-10-16T13:39:48;20.90;99.90
4081;DHT22;2055;50.074;8.436;2022-10-16T13:42:26;20.80;99.90
4081;DHT22;2055;50.074;8.436;2022-10-16T13:44:54;20.80;99.90
4081;DHT22;2055;50.074;8.436;2022-10-16T13:47:26;21.00;99.90
4081;DHT22;2055;50.074;8.436;2022-10-16T13:50:03;20.90;99.90
4081;DHT22;2055;50.074;8.436;2022-10-16T13:52:29;21.00;99.90
4081;DHT22;2055;50.074;8.436;2022-10-16T13:54:54;20.80;99.90
4081;DHT22;2055;50.074;8.436;2022-10-16T13:57:23;20.70;99.90
4081;DHT22;2055;50.074;8.436;2022-10-16T13:59:49;20.60;99.90
4081;DHT22;2055;50.074;8.436;2022-10-16T14:02:22;20.60;99.90
4081;DHT22;2055;50.074;8.436;2022-10-16T14:04:50;20.50;99.90
4081;DHT22;2055;50.074;8.436;2022-10-16T14:07:27;20.40;99.90
4081;DHT22;2055;50.074;8.436;2022-10-16T14:09:54;20.50;99.90
4081;DHT22;2055;50.074;8.436;2022-10-16T14:12:20;20.30;99.90
4081;DHT22;2055;50.074;8.436;2022-10-16T14:14:49;20.20;99.90
4081;DHT22;2055;50.074;8.436;2022-10-16T14:19:48;20.20;99.90
4081;DHT22;2055;50.074;8.436;2022-10-16T14:22:41;20.00;99.90
4081;DHT22;2055;50.074;8.436;2022-10-16T14:27:44;20.30;99.90
4081;DHT22;2055;50.074;8.436;2022-10-16T14:30:19;20.40;99.90
4081;DHT22;2055;50.074;8.436;2022-10-16T14:33:00;20.50;99.90
4081;DHT22;2055;50.074;8.436;2022-10-16T14:35:34;20.50;99.90
4081;DHT22;2055;50.074;8.436;2022-10-16T14:38:02;20.40;99.90
4081;DHT22;2055;50.074;8.436;2022-10-16T14:40:34;20.30;99.90
4081;DHT22;2055;50.074;8.436;2022-10-16T14:43:04;20.50;99.90
4081;DHT22;2055;50.074;8.436;2022-10-16T14:45:32;20.30;99.90
4081;DHT22;2055;50.074;8.436;2022-10-16T14:48:15;20.40;99.90
4081;DHT22;2055;50.074;8.436;2022-10-16T14:50:41;20.50;99.90
4081;DHT22;2055;50.074;8.436;2022-10-16T14:53:14;21.00;99.90
4081;DHT22;2055;50.074;8.436;2022-10-16T14:55:40;20.30;99.90
4081;DHT22;2055;50.074;8.436;2022-10-16T14:58:18;20.30;99.90
4081;DHT22;2055;50.074;8.436;2022-10-16T15:00:44;20.40;99.90
4081;DHT22;2055;50.074;8.436;2022-10-16T15:03:10;20.40;99.90
4081;DHT22;2055;50.074;8.436;2022-10-16T15:05:35;20.60;99.90
4081;DHT22;2055;50.074;8.436;2022-10-16T15:08:01;20.80;99.90
4081;DHT22;2055;50.074;8.436;2022-10-16T15:10:28;20.80;99.90
4081;DHT22;2055;50.074;8.436;2022-10-16T15:12:55;20.60;99.90
4081;DHT22;2055;50.074;8.436;2022-10-16T15:17:51;20.10;99.90
4081;DHT22;2055;50.074;8.436;2022-10-16T15:20:26;20.00;99.90
4081;DHT22;2055;50.074;8.436;2022-10-16T15:22:53;20.00;99.90
4081;DHT22;2055;50.074;8.436;2022-10-16T15:25:42;19.60;99.90
4081;DHT22;2055;50.074;8.436;2022-10-16T15:28:10;19.60;99.90
4081;DHT22;2055;50.074;8.436;2022-10-16T15:30:36;19.50;99.90
4081;DHT22;2055;50.074;8.436;2022-10-16T15:33:03;19.70;99.90
4081;DHT22;2055;50.074;8.436;2022-10-16T15:35:29;19.40;99.90
4081;DHT22;2055;50.074;8.436;2022-10-16T15:37:57;19.40;99.90
4081;DHT22;2055;50.074;8.436;2022-10-16T15:40:22;19.30;99.90
4081;DHT22;2055;50.074;8.436;2022-10-16T15:42:49;19.30;99.90
4081;DHT22;2055;50.074;8.436;2022-10-16T15:45:15;19.20;99.90
4081;DHT22;2055;50.074;8.436;2022-10-16T15:47:41;19.20;99.90
4081;DHT22;2055;50.074;8.436;2022-10-16T15:50:10;19.10;99.90
4081;DHT22;2055;50.074;8.436;2022-10-16T15:52:36;19.00;99.90
4081;DHT22;2055;50.074;8.436;2022-10-16T15:55:02;19.00;99.90
4081;DHT22;2055;50.074;8.436;2022-10-16T15:57:28;18.90;99.90
4081;DHT22;2055;50.074;8.436;2022-10-16T15:59:54;19.20;99.90
4081;DHT22;2055;50.074;8.436;2022-10-16T16:02:20;18.80;99.90
4081;DHT22;2055;50.074;8.436;2022-10-16T16:04:45;18.90;99.90
4081;DHT22;2055;50.074;8.436;2022-10-16T16:07:11;18.70;99.90
4081;DHT22;2055;50.074;8.436;2022-10-16T16:09:37;18.70;99.90
4081;DHT22;2055;50.074;8.436;2022-10-16T16:12:03;18.60;99.90
4081;DHT22;2055;50.074;8.436;2022-10-16T16:14:28;18.60;99.90
4081;DHT22;2055;50.074;8.436;2022-10-16T16:16:55;18.50;99.90
4081;DHT22;2055;50.074;8.436;2022-10-16T16:19:20;18.50;99.90
4081;DHT22;2055;50.074;8.436;2022-10-16T16:21:47;18.40;99.90
4081;DHT22;2055;50.074;8.436;2022-10-16T16:24:13;18.40;99.90
4081;DHT22;2055;50.074;8.436;2022-10-16T16:26:38;18.30;99.90
4081;DHT22;2055;50.074;8.436;2022-10-16T16:29:12;18.30;99.90
4081;DHT22;2055;50.074;8.436;2022-10-16T16:31:39;18.20;99.90
4081;DHT22;2055;50.074;8.436;2022-10-16T16:34:04;18.10;99.90
4081;DHT22;2055;50.074;8.436;2022-10-16T16:36:30;18.00;99.90
4081;DHT22;2055;50.074;8.436;2022-10-16T16:38:57;17.90;99.90
4081;DHT22;2055;50.074;8.436;2022-10-16T16:41:25;17.80;99.90
4081;DHT22;2055;50.074;8.436;2022-10-16T16:43:51;17.70;99.90
4081;DHT22;2055;50.074;8.436;2022-10-16T16:46:17;17.70;99.90
4081;DHT22;2055;50.074;8.436;2022-10-16T16:48:44;17.70;99.90
4081;DHT22;2055;50.074;8.436;2022-10-16T16:51:15;17.80;99.90
4081;DHT22;2055;50.074;8.436;2022-10-16T16:53:46;17.80;99.90
4081;DHT22;2055;50.074;8.436;2022-10-16T16:56:12;17.70;99.90
4081;DHT22;2055;50.074;8.436;2022-10-16T16:58:38;18.90;99.90
4081;DHT22;2055;50.074;8.436;2022-10-16T17:01:03;17.60;99.90
4081;DHT22;2055;50.074;8.436;2022-10-16T17:03:31;17.60;99.90
4081;DHT22;2055;50.074;8.436;2022-10-16T17:05:58;17.50;99.90
4081;DHT22;2055;50.074;8.436;2022-10-16T17:08:24;17.50;99.90
4081;DHT22;2055;50.074;8.436;2022-10-16T17:10:49;17.50;99.90
4081;DHT22;2055;50.074;8.436;2022-10-16T17:13:18;18.60;99.90
4081;DHT22;2055;50.074;8.436;2022-10-16T17:15:48;17.50;99.90
4081;DHT22;2055;50.074;8.436;2022-10-16T17:18:14;17.50;99.90
4081;DHT22;2055;50.074;8.436;2022-10-16T17:20:39;17.40;99.90
4081;DHT22;2055;50.074;8.436;2022-10-16T17:23:06;17.40;99.90
4081;DHT22;2055;50.074;8.436;2022-10-16T17:25:31;17.30;99.90
4081;DHT22;2055;50.074;8.436;2022-10-16T17:27:57;17.30;99.90
4081;DHT22;2055;50.074;8.436;2022-10-16T17:30:25;17.30;99.90
4081;DHT22;2055;50.074;8.436;2022-10-16T17:32:51;17.30;99.90
4081;DHT22;2055;50.074;8.436;2022-10-16T17:35:17;17.80;99.90
4081;DHT22;2055;50.074;8.436;2022-10-16T17:37:42;17.20;99.90
4081;DHT22;2055;50.074;8.436;2022-10-16T17:40:09;17.10;99.90
4081;DHT22;2055;50.074;8.436;2022-10-16T17:42:35;17.00;99.90
4081;DHT22;2055;50.074;8.436;2022-10-16T17:45:00;17.10;99.90
4081;DHT22;2055;50.074;8.436;2022-10-16T17:47:27;16.80;99.90
4081;DHT22;2055;50.074;8.436;2022-10-16T17:49:52;16.70;99.90
4081;DHT22;2055;50.074;8.436;2022-10-16T17:52:18;16.50;99.90
4081;DHT22;2055;50.074;8.436;2022-10-16T17:54:43;16.90;99.90
4081;DHT22;2055;50.074;8.436;2022-10-16T17:57:09;16.70;99.90
4081;DHT22;2055;50.074;8.436;2022-10-16T17:59:35;16.60;99.90
4081;DHT22;2055;50.074;8.436;2022-10-16T18:02:01;16.70;99.90
4081;DHT22;2055;50.074;8.436;2022-10-16T18:04:27;16.60;99.90
4081;DHT22;2055;50.074;8.436;2022-10-16T18:06:53;17.20;99.90